createdAt,value
2023-02-18T00:00:28.270Z,15.57
2023-02-18T00:02:55.836Z,15.93
2023-02-18T00:05:22.875Z,16.67
2023-02-18T00:07:49.348Z,16.33
2023-02-18T00:10:16.050Z,14.63
2023-02-18T00:12:43.660Z,14.73
2023-02-18T00:15:10.529Z,15.07
2023-02-18T00:17:37.136Z,14.32
2023-02-18T00:20:06.484Z,15.63
2023-02-18T00:22:33.028Z,15.70
2023-02-18T00:24:59.419Z,17.23
2023-02-18T00:27:25.723Z,16.33
2023-02-18T00:29:52.112Z,16.42
2023-02-18T00:32:18.416Z,17.80
2023-02-18T00:34:44.969Z,15.17
2023-02-18T00:37:11.293Z,16.52
2023-02-18T00:39:37.630Z,17.90
2023-02-18T00:42:04.134Z,16.52
2023-02-18T00:44:30.542Z,16.45
2023-02-18T00:46:56.896Z,17.57
2023-02-18T00:49:23.235Z,16.38
2023-02-18T00:51:49.622Z,16.77
2023-02-18T00:54:16.003Z,15.32
2023-02-18T00:56:42.337Z,15.50
2023-02-18T00:59:08.747Z,15.60
2023-02-18T01:01:35.241Z,15.70
2023-02-18T01:04:01.821Z,14.93
2023-02-18T01:06:28.196Z,14.27
2023-02-18T01:08:54.530Z,13.90
2023-02-18T01:11:20.878Z,13.10
2023-02-18T01:13:47.709Z,13.15
2023-02-18T01:16:14.054Z,13.82
2023-02-18T01:18:40.672Z,12.65
2023-02-18T01:21:08.949Z,13.70
2023-02-18T01:23:40.239Z,12.77
2023-02-18T01:26:07.437Z,12.32
2023-02-18T01:28:34.522Z,12.75
2023-02-18T01:31:09.020Z,12.07
2023-02-18T01:33:36.119Z,10.48
2023-02-18T01:36:02.516Z,12.23
2023-02-18T01:38:29.215Z,12.65
2023-02-18T01:40:55.596Z,12.20
2023-02-18T01:43:22.654Z,11.23
2023-02-18T01:46:12.171Z,12.52
2023-02-18T01:48:43.843Z,12.17
2023-02-18T01:51:41.471Z,10.52
2023-02-18T01:54:22.447Z,10.18
2023-02-18T01:56:54.690Z,10.88
2023-02-18T01:59:25.761Z,11.60
2023-02-18T02:01:53.159Z,10.50
2023-02-18T02:04:20.399Z,10.88
2023-02-18T02:06:46.711Z,11.63
2023-02-18T02:09:15.974Z,12.02
2023-02-18T02:12:19.377Z,11.75
2023-02-18T02:15:13.544Z,11.67
2023-02-18T02:18:01.321Z,11.80
2023-02-18T02:20:46.366Z,11.10
2023-02-18T02:23:40.810Z,12.20
2023-02-18T02:26:38.700Z,11.55
2023-02-18T02:29:31.654Z,11.70
2023-02-18T02:32:09.794Z,11.43
2023-02-18T02:34:55.138Z,13.63
2023-02-18T02:37:44.881Z,12.93
2023-02-18T02:40:30.285Z,12.18
2023-02-18T02:43:30.565Z,13.83
2023-02-18T02:46:03.078Z,12.52
2023-02-18T02:48:57.088Z,13.18
2023-02-18T02:51:32.851Z,13.23
2023-02-18T02:54:12.035Z,13.18
2023-02-18T02:56:38.407Z,12.47
2023-02-18T02:59:08.892Z,12.52
2023-02-18T03:01:38.177Z,13.48
2023-02-18T03:04:33.640Z,12.68
2023-02-18T03:07:24.187Z,12.85
2023-02-18T03:10:07.934Z,12.40
2023-02-18T03:12:42.151Z,12.23
2023-02-18T03:15:22.499Z,12.23
2023-02-18T03:18:00.987Z,12.15
2023-02-18T03:20:59.021Z,10.38
2023-02-18T03:23:32.733Z,11.80
2023-02-18T03:25:59.926Z,11.35
2023-02-18T03:28:32.089Z,11.60
2023-02-18T03:31:13.356Z,9.68
2023-02-18T03:33:54.867Z,11.20
2023-02-18T03:36:22.509Z,10.37
2023-02-18T03:38:56.064Z,10.80
2023-02-18T03:41:22.640Z,9.30
2023-02-18T03:43:53.714Z,9.25
2023-02-18T03:46:20.423Z,8.07
2023-02-18T03:48:47.047Z,7.77
2023-02-18T03:51:13.457Z,7.45
2023-02-18T03:53:39.894Z,6.78
2023-02-18T03:56:06.943Z,5.47
2023-02-18T03:58:33.701Z,5.25
2023-02-18T04:01:00.154Z,4.60
2023-02-18T04:03:26.544Z,4.40
2023-02-18T04:05:52.997Z,4.32
2023-02-18T04:08:19.481Z,3.97
2023-02-18T04:10:45.824Z,4.30
2023-02-18T04:13:12.233Z,2.83
2023-02-18T04:15:38.894Z,3.50
2023-02-18T04:18:05.323Z,3.17
2023-02-18T04:20:31.662Z,2.70
2023-02-18T04:22:58.093Z,2.40
2023-02-18T04:25:24.626Z,1.83
2023-02-18T04:27:50.969Z,2.60
2023-02-18T04:30:18.873Z,2.42
2023-02-18T04:32:45.615Z,2.45
2023-02-18T04:35:11.990Z,2.60
2023-02-18T04:37:38.310Z,2.40
2023-02-18T04:40:05.255Z,2.55
2023-02-18T04:42:31.575Z,2.30
2023-02-18T04:44:58.063Z,2.72
2023-02-18T04:47:24.413Z,2.67
2023-02-18T04:49:50.752Z,2.43
2023-02-18T04:52:17.257Z,2.63
2023-02-18T04:54:43.733Z,2.75
2023-02-18T04:57:10.194Z,3.10
2023-02-18T04:59:36.784Z,3.10
2023-02-18T05:02:03.904Z,3.00
2023-02-18T05:04:30.541Z,2.85
2023-02-18T05:06:57.120Z,3.05
2023-02-18T05:09:23.636Z,3.85
2023-02-18T05:11:50.197Z,3.15
2023-02-18T05:14:16.648Z,3.80
2023-02-18T05:16:43.084Z,4.00
2023-02-18T05:19:14.037Z,3.92
2023-02-18T05:21:41.035Z,3.35
2023-02-18T05:24:08.607Z,3.53
2023-02-18T05:26:35.174Z,3.70
2023-02-18T05:29:01.611Z,3.20
2023-02-18T05:31:28.114Z,3.25
2023-02-18T05:33:54.573Z,3.35
2023-02-18T05:36:21.137Z,2.63
2023-02-18T05:38:48.927Z,3.20
2023-02-18T05:41:15.441Z,3.83
2023-02-18T05:44:00.328Z,4.40
2023-02-18T05:46:26.737Z,4.90
2023-02-18T05:48:53.403Z,4.65
2023-02-18T05:51:20.289Z,6.27
2023-02-18T05:53:46.618Z,6.00
2023-02-18T05:56:12.927Z,7.15
2023-02-18T05:58:39.248Z,7.63
2023-02-18T06:01:05.581Z,8.32
2023-02-18T06:03:32.025Z,7.37
2023-02-18T06:05:58.446Z,6.85
2023-02-18T06:08:24.786Z,7.47
2023-02-18T06:10:51.127Z,6.82
2023-02-18T06:13:17.731Z,7.22
2023-02-18T06:15:44.296Z,7.80
2023-02-18T06:18:10.704Z,7.28
2023-02-18T06:20:37.022Z,7.70
2023-02-18T06:23:03.370Z,7.63
2023-02-18T06:25:29.724Z,8.95
2023-02-18T06:27:56.097Z,6.60
2023-02-18T06:30:24.333Z,7.93
2023-02-18T06:32:50.986Z,7.78
2023-02-18T06:35:17.558Z,7.85
2023-02-18T06:37:44.870Z,7.63
2023-02-18T06:40:11.582Z,7.07
2023-02-18T06:42:37.888Z,6.43
2023-02-18T06:45:06.550Z,6.25
2023-02-18T06:47:34.242Z,6.47
2023-02-18T06:50:00.821Z,6.63
2023-02-18T06:52:27.190Z,5.20
2023-02-18T06:54:53.575Z,5.30
2023-02-18T06:57:19.922Z,6.18
2023-02-18T06:59:46.259Z,5.68
2023-02-18T07:02:15.558Z,6.00
2023-02-18T07:04:41.877Z,6.73
2023-02-18T07:07:08.219Z,6.43
2023-02-18T07:09:34.586Z,7.30
2023-02-18T07:12:00.960Z,8.02
2023-02-18T07:14:28.404Z,8.35
2023-02-18T07:16:54.773Z,7.00
2023-02-18T07:19:21.302Z,7.95
2023-02-18T07:21:47.649Z,8.90
2023-02-18T07:24:14.039Z,8.63
2023-02-18T07:26:40.661Z,8.80
2023-02-18T07:29:07.300Z,9.17
2023-02-18T07:31:33.813Z,8.77
2023-02-18T07:34:00.499Z,8.48
2023-02-18T07:36:26.864Z,9.18
2023-02-18T07:38:53.231Z,8.40
2023-02-18T07:41:21.708Z,7.53
2023-02-18T07:43:48.590Z,8.25
2023-02-18T07:46:15.714Z,7.95
2023-02-18T07:48:42.819Z,8.00
2023-02-18T07:51:11.117Z,7.72
2023-02-18T07:53:38.456Z,7.33
2023-02-18T07:56:06.105Z,6.30
2023-02-18T07:58:35.565Z,5.78
2023-02-18T08:01:10.439Z,4.90
2023-02-18T08:03:37.130Z,4.43
2023-02-18T08:06:05.335Z,4.73
2023-02-18T08:08:34.580Z,4.93
2023-02-18T08:11:13.388Z,3.88
2023-02-18T08:13:46.953Z,4.65
2023-02-18T08:16:13.598Z,3.65
2023-02-18T08:18:39.942Z,3.33
2023-02-18T08:21:06.313Z,3.42
2023-02-18T08:23:32.654Z,2.58
2023-02-18T08:25:58.986Z,2.60
2023-02-18T08:28:25.454Z,3.40
2023-02-18T08:30:53.635Z,2.30
2023-02-18T08:33:20.909Z,2.97
2023-02-18T08:35:48.827Z,1.90
2023-02-18T08:38:19.182Z,1.77
2023-02-18T08:40:46.014Z,2.42
2023-02-18T08:43:14.979Z,3.03
2023-02-18T08:45:43.427Z,1.77
2023-02-18T08:48:18.591Z,1.83
2023-02-18T08:50:47.981Z,2.08
2023-02-18T08:53:14.786Z,2.10
2023-02-18T08:55:41.618Z,1.83
2023-02-18T08:58:08.476Z,2.22
2023-02-18T09:00:35.760Z,1.80
2023-02-18T09:03:02.233Z,2.05
2023-02-18T09:05:28.724Z,1.50
2023-02-18T09:07:55.283Z,1.97
2023-02-18T09:10:22.143Z,2.13
2023-02-18T09:12:48.757Z,1.45
2023-02-18T09:15:15.400Z,1.85
2023-02-18T09:17:41.755Z,2.25
2023-02-18T09:20:08.726Z,1.47
2023-02-18T09:22:35.135Z,2.25
2023-02-18T09:25:05.821Z,1.17
2023-02-18T09:27:32.252Z,1.80
2023-02-18T09:29:58.587Z,1.90
2023-02-18T09:32:34.403Z,1.73
2023-02-18T09:35:01.614Z,1.63
2023-02-18T09:37:28.782Z,1.77
2023-02-18T09:39:55.147Z,1.50
2023-02-18T09:42:28.082Z,1.25
2023-02-18T09:45:03.687Z,2.17
2023-02-18T09:47:35.827Z,1.90
2023-02-18T09:50:09.145Z,1.48
2023-02-18T09:52:38.485Z,1.30
2023-02-18T09:55:23.958Z,2.63
2023-02-18T09:57:53.902Z,1.70
2023-02-18T10:00:29.193Z,2.38
2023-02-18T10:02:58.416Z,1.60
2023-02-18T10:05:28.006Z,1.70
2023-02-18T10:07:58.749Z,2.38
2023-02-18T10:10:35.153Z,1.60
2023-02-18T10:13:01.714Z,1.50
2023-02-18T10:15:31.519Z,1.75
2023-02-18T10:17:58.934Z,2.55
2023-02-18T10:20:29.618Z,1.98
2023-02-18T10:22:58.834Z,1.53
2023-02-18T10:25:26.196Z,1.52
2023-02-18T10:27:53.632Z,1.65
2023-02-18T10:30:37.929Z,1.88
2023-02-18T10:33:34.031Z,1.50
2023-02-18T10:36:18.781Z,1.70
2023-02-18T10:39:06.230Z,1.95
2023-02-18T10:42:05.721Z,1.90
2023-02-18T10:44:47.005Z,2.03
2023-02-18T10:47:51.081Z,2.10
2023-02-18T10:50:40.760Z,1.57
2023-02-18T10:53:28.235Z,2.47
2023-02-18T10:55:56.637Z,2.40
2023-02-18T10:58:45.914Z,1.95
2023-02-18T11:01:19.147Z,1.55
2023-02-18T11:03:45.461Z,2.47
2023-02-18T11:06:29.856Z,1.75
2023-02-18T11:08:58.046Z,1.70
2023-02-18T11:11:30.427Z,1.85
2023-02-18T11:13:59.942Z,2.50
2023-02-18T11:16:42.805Z,1.70
2023-02-18T11:19:51.640Z,2.92
2023-02-18T11:22:39.019Z,1.85
2023-02-18T11:25:19.911Z,1.80
2023-02-18T11:27:50.787Z,1.40
2023-02-18T11:30:22.508Z,1.70
2023-02-18T11:32:56.051Z,1.50
2023-02-18T11:35:26.216Z,1.88
2023-02-18T11:37:53.370Z,1.83
2023-02-18T11:40:32.755Z,1.58
2023-02-18T11:43:14.335Z,1.67
2023-02-18T11:45:41.595Z,1.83
2023-02-18T11:48:16.143Z,1.52
2023-02-18T11:50:43.013Z,2.05
2023-02-18T11:53:30.164Z,1.90
2023-02-18T11:55:59.478Z,1.20
2023-02-18T11:58:27.139Z,2.17
2023-02-18T12:01:00.594Z,1.63
2023-02-18T12:03:46.918Z,1.45
2023-02-18T12:06:28.318Z,1.85
2023-02-18T12:09:01.723Z,1.60
2023-02-18T12:11:34.486Z,2.20
2023-02-18T12:14:00.914Z,1.88
2023-02-18T12:16:38.835Z,1.80
2023-02-18T12:19:39.266Z,1.70
2023-02-18T12:22:08.945Z,1.43
2023-02-18T12:24:49.902Z,1.67
2023-02-18T12:27:36.926Z,1.80
2023-02-18T12:30:30.296Z,1.60
2023-02-18T12:33:30.710Z,2.40
2023-02-18T12:36:23.529Z,1.20
2023-02-18T12:39:12.601Z,2.25
2023-02-18T12:42:07.694Z,1.50
2023-02-18T12:44:45.491Z,1.20
2023-02-18T12:47:30.698Z,1.83
2023-02-18T12:50:30.959Z,1.67
2023-02-18T12:53:16.842Z,1.85
2023-02-18T12:56:28.263Z,1.63
2023-02-18T12:59:06.746Z,1.52
2023-02-18T13:01:46.825Z,1.10
2023-02-18T13:04:36.562Z,1.20
2023-02-18T13:07:05.706Z,1.40
2023-02-18T13:09:53.200Z,1.58
2023-02-18T13:12:38.136Z,1.65
2023-02-18T13:15:23.253Z,0.90
2023-02-18T13:17:51.234Z,1.50
2023-02-18T13:20:23.407Z,0.93
2023-02-18T13:22:53.169Z,1.55
2023-02-18T13:25:21.186Z,0.85
2023-02-18T13:28:19.931Z,0.95
2023-02-18T13:31:03.958Z,1.27
2023-02-18T13:33:38.926Z,0.95
2023-02-18T13:36:23.966Z,1.05
2023-02-18T13:39:07.193Z,1.60
2023-02-18T13:41:39.691Z,1.42
2023-02-18T13:44:30.546Z,1.53
2023-02-18T13:46:58.817Z,1.50
2023-02-18T13:49:31.842Z,1.58
2023-02-18T13:51:59.710Z,1.15
2023-02-18T13:54:46.491Z,1.45
2023-02-18T13:57:19.733Z,1.20
2023-02-18T13:59:50.754Z,1.58
2023-02-18T14:02:19.926Z,1.00
2023-02-18T14:04:46.392Z,1.30
2023-02-18T14:07:18.548Z,0.73
2023-02-18T14:09:46.605Z,0.77
2023-02-18T14:12:38.879Z,1.30
2023-02-18T14:15:20.473Z,1.05
2023-02-18T14:18:02.554Z,0.50
2023-02-18T14:20:37.911Z,0.65
2023-02-18T14:23:22.803Z,1.00
2023-02-18T14:25:57.451Z,0.77
2023-02-18T14:28:36.101Z,1.33
2023-02-18T14:31:58.107Z,0.80
2023-02-18T14:34:24.473Z,0.90
2023-02-18T14:37:15.487Z,1.10
2023-02-18T14:39:56.825Z,1.30
2023-02-18T14:42:45.675Z,1.00
2023-02-18T14:45:33.681Z,0.95
2023-02-18T14:48:30.283Z,0.95
2023-02-18T14:50:57.169Z,0.80
2023-02-18T14:53:26.107Z,0.95
2023-02-18T14:55:59.367Z,1.17
2023-02-18T14:58:32.494Z,1.30
2023-02-18T15:01:17.369Z,0.70
2023-02-18T15:03:43.722Z,1.20
2023-02-18T15:06:28.167Z,0.93
2023-02-18T15:08:54.662Z,1.00
2023-02-18T15:11:25.173Z,0.80
2023-02-18T15:13:51.904Z,1.15
2023-02-18T15:16:32.634Z,1.30
2023-02-18T15:19:07.784Z,1.30
2023-02-18T15:21:44.250Z,1.20
2023-02-18T15:24:27.552Z,0.90
2023-02-18T15:26:57.383Z,1.60
2023-02-18T15:29:29.726Z,1.00
2023-02-18T15:31:58.061Z,1.85
2023-02-18T15:34:35.598Z,1.50
2023-02-18T15:37:05.150Z,1.17
2023-02-18T15:39:32.734Z,1.30
2023-02-18T15:42:09.022Z,1.43
2023-02-18T15:44:36.629Z,1.25
2023-02-18T15:47:07.556Z,1.73
2023-02-18T15:49:37.715Z,1.50
2023-02-18T15:52:05.642Z,1.90
2023-02-18T15:54:32.431Z,1.57
2023-02-18T15:57:02.724Z,1.65
2023-02-18T15:59:34.088Z,1.30
2023-02-18T16:02:16.146Z,1.75
2023-02-18T16:04:47.319Z,2.03
2023-02-18T16:07:32.462Z,2.43
2023-02-18T16:10:07.891Z,1.95
2023-02-18T16:12:37.499Z,2.65
2023-02-18T16:15:04.653Z,2.20
2023-02-18T16:17:32.215Z,3.10
2023-02-18T16:20:05.417Z,2.63
2023-02-18T16:22:32.183Z,3.10
2023-02-18T16:25:00.562Z,2.05
2023-02-18T16:27:36.613Z,2.40
2023-02-18T16:30:16.895Z,3.05
2023-02-18T16:32:44.157Z,2.93
2023-02-18T16:35:11.998Z,2.92
2023-02-18T16:37:39.004Z,2.80
2023-02-18T16:40:31.822Z,2.88
2023-02-18T16:43:01.285Z,3.05
2023-02-18T16:45:49.767Z,4.20
2023-02-18T16:48:20.878Z,2.55
2023-02-18T16:50:49.458Z,2.55
2023-02-18T16:53:15.939Z,3.50
2023-02-18T16:55:42.265Z,3.47
2023-02-18T16:58:08.710Z,2.17
2023-02-18T17:00:35.393Z,2.65
2023-02-18T17:03:02.159Z,2.95
2023-02-18T17:05:31.817Z,3.33
2023-02-18T17:08:17.088Z,3.42
2023-02-18T17:10:43.492Z,2.93
2023-02-18T17:13:17.555Z,3.33
2023-02-18T17:15:47.789Z,3.42
2023-02-18T17:18:14.328Z,4.18
2023-02-18T17:20:40.730Z,3.33
2023-02-18T17:23:07.517Z,3.63
2023-02-18T17:25:39.368Z,3.70
2023-02-18T17:28:06.329Z,2.50
2023-02-18T17:30:36.576Z,2.70
2023-02-18T17:33:03.784Z,2.92
2023-02-18T17:35:30.963Z,5.20
2023-02-18T17:37:57.418Z,2.67
2023-02-18T17:40:26.231Z,2.83
2023-02-18T17:42:54.586Z,2.45
2023-02-18T17:45:28.797Z,2.47
2023-02-18T17:47:59.814Z,2.73
2023-02-18T17:50:27.714Z,3.63
2023-02-18T17:52:55.304Z,3.38
2023-02-18T17:55:24.157Z,3.13
2023-02-18T17:57:51.798Z,2.60
2023-02-18T18:00:23.425Z,2.73
2023-02-18T18:02:49.912Z,3.45
2023-02-18T18:05:21.113Z,4.03
2023-02-18T18:07:47.587Z,3.70
2023-02-18T18:10:13.999Z,3.45
2023-02-18T18:12:40.538Z,4.13
2023-02-18T18:15:21.518Z,3.78
2023-02-18T18:17:48.260Z,4.05
2023-02-18T18:20:14.766Z,4.60
2023-02-18T18:22:41.130Z,5.90
2023-02-18T18:25:41.541Z,5.53
2023-02-18T18:28:08.631Z,5.75
2023-02-18T18:30:38.435Z,5.30
2023-02-18T18:33:14.034Z,5.63
2023-02-18T18:35:40.389Z,5.40
2023-02-18T18:38:06.902Z,5.93
2023-02-18T18:40:34.283Z,6.35
2023-02-18T18:43:01.570Z,6.68
2023-02-18T18:45:32.378Z,6.47
2023-02-18T18:47:58.911Z,6.65
2023-02-18T18:50:26.073Z,6.70
2023-02-18T18:52:53.382Z,7.07
2023-02-18T18:55:36.124Z,7.32
2023-02-18T18:58:02.476Z,10.55
2023-02-18T19:00:31.931Z,9.90
2023-02-18T19:02:58.932Z,9.30
2023-02-18T19:05:35.141Z,11.20
2023-02-18T19:08:02.725Z,10.70
2023-02-18T19:10:32.482Z,10.75
2023-02-18T19:13:23.398Z,11.18
2023-02-18T19:15:53.187Z,10.17
2023-02-18T19:18:21.267Z,10.90
2023-02-18T19:20:48.325Z,11.70
2023-02-18T19:23:14.778Z,10.90
2023-02-18T19:25:41.418Z,10.98
2023-02-18T19:28:08.892Z,11.20
2023-02-18T19:30:36.946Z,10.88
2023-02-18T19:33:05.506Z,10.75
2023-02-18T19:35:32.806Z,11.80
2023-02-18T19:38:00.232Z,10.98
2023-02-18T19:40:29.874Z,11.30
2023-02-18T19:42:56.649Z,11.13
2023-02-18T19:45:23.494Z,10.20
2023-02-18T19:47:57.746Z,10.70
2023-02-18T19:50:25.266Z,10.73
2023-02-18T19:52:53.285Z,11.73
2023-02-18T19:55:19.930Z,10.73
2023-02-18T19:57:46.314Z,11.40
2023-02-18T20:00:15.554Z,10.77
2023-02-18T20:02:42.607Z,10.60
2023-02-18T20:05:10.957Z,10.53
2023-02-18T20:07:38.329Z,11.13
2023-02-18T20:10:05.874Z,10.32
2023-02-18T20:12:32.624Z,10.93
2023-02-18T20:14:59.041Z,11.13
2023-02-18T20:17:25.661Z,10.60
2023-02-18T20:19:52.034Z,10.55
2023-02-18T20:22:18.496Z,9.43
2023-02-18T20:24:44.821Z,9.88
2023-02-18T20:27:11.217Z,10.98
2023-02-18T20:29:37.586Z,10.03
2023-02-18T20:32:05.407Z,10.55
2023-02-18T20:34:32.832Z,10.60
2023-02-18T20:36:59.929Z,10.63
2023-02-18T20:39:26.306Z,10.30
2023-02-18T20:41:52.657Z,9.97
2023-02-18T20:44:20.379Z,10.00
2023-02-18T20:46:49.349Z,11.02
2023-02-18T20:49:17.645Z,10.52
2023-02-18T20:51:44.159Z,9.43
2023-02-18T20:54:15.679Z,9.47
2023-02-18T20:56:43.807Z,10.13
2023-02-18T20:59:14.502Z,9.13
2023-02-18T21:01:42.746Z,9.48
2023-02-18T21:04:17.547Z,9.25
2023-02-18T21:06:45.508Z,7.70
2023-02-18T21:09:13.406Z,7.47
2023-02-18T21:11:40.619Z,7.90
2023-02-18T21:14:07.232Z,7.50
2023-02-18T21:16:38.445Z,7.25
2023-02-18T21:19:08.050Z,6.90
2023-02-18T21:21:35.015Z,7.10
2023-02-18T21:24:02.222Z,6.68
2023-02-18T21:26:29.597Z,6.97
2023-02-18T21:29:00.818Z,8.40
2023-02-18T21:31:33.678Z,8.23
2023-02-18T21:34:00.370Z,8.65
2023-02-18T21:36:27.407Z,9.48
2023-02-18T21:38:59.586Z,9.35
2023-02-18T21:41:27.421Z,11.02
2023-02-18T21:43:53.840Z,9.93
2023-02-18T21:46:28.226Z,10.32
2023-02-18T21:49:09.911Z,10.82
2023-02-18T21:51:57.217Z,10.98
2023-02-18T21:54:39.679Z,11.80
2023-02-18T21:57:10.802Z,11.33
2023-02-18T21:59:37.905Z,11.93
2023-02-18T22:02:06.867Z,12.05
2023-02-18T22:04:36.059Z,11.75
2023-02-18T22:07:03.348Z,12.70
2023-02-18T22:09:30.219Z,13.60
2023-02-18T22:11:56.606Z,12.40
2023-02-18T22:14:23.134Z,13.57
2023-02-18T22:16:49.500Z,12.65
2023-02-18T22:19:16.089Z,13.85
2023-02-18T22:21:42.847Z,11.87
2023-02-18T22:24:10.839Z,12.57
2023-02-18T22:26:37.166Z,12.05
2023-02-18T22:29:03.482Z,11.27
2023-02-18T22:31:31.249Z,12.25
2023-02-18T22:33:59.440Z,14.00
2023-02-18T22:36:27.443Z,11.70
2023-02-18T22:38:54.107Z,12.82
2023-02-18T22:41:26.318Z,11.98
2023-02-18T22:44:05.139Z,11.75
2023-02-18T22:46:34.058Z,11.30
2023-02-18T22:49:02.281Z,10.35
2023-02-18T22:51:32.175Z,11.32
2023-02-18T22:54:00.045Z,12.95
2023-02-18T22:56:29.212Z,10.95
2023-02-18T22:58:58.097Z,10.00
2023-02-18T23:01:28.560Z,9.48
2023-02-18T23:03:56.801Z,10.15
2023-02-18T23:06:24.076Z,8.88
2023-02-18T23:08:50.970Z,10.52
2023-02-18T23:11:18.971Z,10.43
2023-02-18T23:14:06.076Z,8.52
2023-02-18T23:16:53.282Z,9.32
2023-02-18T23:19:19.838Z,8.63
2023-02-18T23:21:46.687Z,8.45
2023-02-18T23:24:13.235Z,7.97
2023-02-18T23:26:39.565Z,8.10
2023-02-18T23:29:06.666Z,8.02
2023-02-18T23:31:34.090Z,8.05
2023-02-18T23:34:01.429Z,8.77
2023-02-18T23:36:29.909Z,7.67
2023-02-18T23:39:01.604Z,7.25
2023-02-18T23:41:29.058Z,7.93
2023-02-18T23:43:55.882Z,7.38
2023-02-18T23:46:24.594Z,7.93
2023-02-18T23:48:51.888Z,7.27
2023-02-18T23:51:20.517Z,7.13
2023-02-18T23:53:47.456Z,6.95
2023-02-18T23:56:15.038Z,7.13
2023-02-18T23:58:43.252Z,7.00
